Time;durP1;ratioP1;P1;durP2;ratioP2;P2;SDS_P1;SDS_P2;PMS_P1;PMS_P2;Temp;Humidity;BMP_temperature;BMP_pressure;BME280_temperature;BME280_humidity;BME280_pressure;Samples;Min_cycle;Max_cycle;Signal;HPM_P1;HPM_P2
2023/04/19 00:01:15;;;;;;;79.57;74.00;;;10.60;1.00;;;;;;5010185;28;20058;-81
2023/04/19 00:03:41;;;;;;;49.67;45.53;;;9.00;1.00;;;;;;4999314;28;20065;-81
2023/04/19 00:06:07;;;;;;;45.83;42.33;;;9.00;1.00;;;;;;4993576;28;20041;-81
2023/04/19 00:08:33;;;;;;;79.43;73.85;;;9.00;1.00;;;;;;4994300;28;20050;-81
2023/04/19 00:10:58;;;;;;;38.63;35.72;;;9.00;1.00;;;;;;4993126;28;20091;-81
2023/04/19 00:13:24;;;;;;;63.47;58.03;;;8.90;1.00;;;;;;5011175;28;20045;-81
2023/04/19 00:15:50;;;;;;;39.80;36.70;;;9.00;1.00;;;;;;5004133;28;20509;-81
2023/04/19 00:18:15;;;;;;;42.75;39.25;;;8.90;1.00;;;;;;4981891;28;20041;-80
2023/04/19 00:20:41;;;;;;;39.20;35.90;;;10.10;1.00;;;;;;4979279;28;20030;-80
2023/04/19 00:23:07;;;;;;;50.17;46.20;;;9.90;1.00;;;;;;4998408;28;20046;-81
2023/04/19 00:25:33;;;;;;;40.53;37.40;;;8.80;1.00;;;;;;4993166;28;20517;-81
2023/04/19 00:27:59;;;;;;;42.05;38.72;;;8.80;1.00;;;;;;4993833;28;20086;-81
2023/04/19 00:30:24;;;;;;;36.60;33.60;;;8.70;2.50;;;;;;5009760;28;20069;-81
2023/04/19 00:32:51;;;;;;;39.60;36.28;;;8.70;40.90;;;;;;4991710;28;20049;-80
2023/04/19 00:35:17;;;;;;;42.88;39.30;;;8.70;79.60;;;;;;4998687;28;20038;-81
2023/04/19 00:37:42;;;;;;;37.03;33.92;;;8.70;99.90;;;;;;5009315;28;20097;-80
2023/04/19 00:40:08;;;;;;;40.28;37.08;;;8.70;99.90;;;;;;4985061;28;20457;-81
2023/04/19 00:42:35;;;;;;;41.72;38.42;;;8.70;99.90;;;;;;5009964;28;20033;-81
2023/04/19 00:45:00;;;;;;;49.72;45.85;;;8.80;99.90;;;;;;4994854;28;20034;-81
2023/04/19 00:47:26;;;;;;;41.80;38.38;;;9.60;99.90;;;;;;4978735;28;20050;-81
2023/04/19 00:49:51;;;;;;;35.35;32.28;;;10.50;99.90;;;;;;4993124;28;20046;-81
2023/04/19 00:52:18;;;;;;;35.17;32.38;;;10.60;99.90;;;;;;4980111;28;20042;-81
2023/04/19 00:54:44;;;;;;;46.15;42.25;;;8.60;1.00;;;;;;4992977;28;20073;-81
2023/04/19 00:57:10;;;;;;;37.22;34.30;;;8.60;1.00;;;;;;4997052;28;20562;-81
2023/04/19 00:59:36;;;;;;;55.08;51.10;;;9.30;1.00;;;;;;5000421;28;20064;-81
2023/04/19 01:02:02;;;;;;;67.88;63.05;;;8.70;1.00;;;;;;4990713;28;20065;-81
2023/04/19 01:04:27;;;;;;;36.35;33.45;;;8.70;1.00;;;;;;4985554;28;20042;-81
2023/04/19 01:06:53;;;;;;;39.60;36.42;;;8.70;1.00;;;;;;4994247;28;20121;-81
2023/04/19 01:09:18;;;;;;;49.22;45.00;;;8.70;14.90;;;;;;4979013;28;20047;-81
2023/04/19 01:11:44;;;;;;;34.58;31.70;;;8.70;48.00;;;;;;5004558;28;20464;-81
2023/04/19 01:14:10;;;;;;;45.53;41.83;;;8.60;90.30;;;;;;4995662;28;20042;-81
2023/04/19 01:16:35;;;;;;;45.28;41.60;;;10.20;99.90;;;;;;5003631;28;20524;-81
2023/04/19 01:19:01;;;;;;;45.85;41.67;;;8.60;99.90;;;;;;4980343;28;20406;-81
2023/04/19 01:21:29;;;;;;;44.30;40.53;;;8.60;99.90;;;;;;4979359;28;20050;-81
2023/04/19 01:23:55;;;;;;;56.63;51.55;;;8.60;99.90;;;;;;5002664;28;20237;-81
2023/04/19 01:26:21;;;;;;;57.30;52.45;;;8.90;99.90;;;;;;4999599;28;20608;-81
2023/04/19 01:28:46;;;;;;;35.03;32.08;;;8.60;99.90;;;;;;4994681;28;20081;-81
2023/04/19 01:31:12;;;;;;;54.50;49.45;;;8.60;99.90;;;;;;4979025;28;20125;-81
2023/04/19 01:33:37;;;;;;;56.28;51.35;;;8.50;99.90;;;;;;4994584;28;20042;-81
2023/04/19 01:36:03;;;;;;;47.78;43.78;;;8.50;99.90;;;;;;4991992;28;20041;-81
2023/04/19 01:38:29;;;;;;;44.58;40.65;;;8.60;1.00;;;;;;4986550;28;20112;-81
2023/04/19 01:40:56;;;;;;;38.55;35.45;;;9.20;1.00;;;;;;4995060;28;20132;-90
2023/04/19 01:43:21;;;;;;;40.00;36.63;;;9.60;1.00;;;;;;4997297;28;20537;-89
2023/04/19 01:45:47;;;;;;;55.30;50.58;;;8.60;1.00;;;;;;4992393;28;20073;-89
2023/04/19 01:48:13;;;;;;;60.38;55.20;;;8.60;1.00;;;;;;4990330;28;20056;-89
2023/04/19 01:50:38;;;;;;;46.28;42.58;;;8.60;1.00;;;;;;4981614;28;20046;-90
2023/04/19 01:53:04;;;;;;;45.13;40.70;;;8.60;99.90;;;;;;5009472;28;20037;-89
2023/04/19 01:55:30;;;;;;;59.50;54.38;;;8.60;99.90;;;;;;5003657;28;20046;-89
2023/04/19 01:57:55;;;;;;;48.40;44.22;;;8.70;99.90;;;;;;4996140;28;20049;-89
2023/04/19 02:00:21;;;;;;;50.38;46.22;;;8.60;99.90;;;;;;4991074;28;20038;-90
2023/04/19 02:02:47;;;;;;;56.47;51.78;;;8.60;99.90;;;;;;4992722;28;20033;-89
2023/04/19 02:05:13;;;;;;;41.22;37.92;;;8.60;44.10;;;;;;5005769;28;20042;-89
2023/04/19 02:07:39;;;;;;;59.50;54.22;;;8.60;1.00;;;;;;4994637;28;20046;-89
2023/04/19 02:10:05;;;;;;;63.35;57.30;;;8.60;1.00;;;;;;5005507;28;20120;-89
2023/04/19 02:12:33;;;;;;;55.33;50.25;;;8.60;1.00;;;;;;4989696;28;20049;-89
2023/04/19 02:15:00;;;;;;;38.58;35.38;;;8.60;1.00;;;;;;5009979;28;20536;-89
2023/04/19 02:17:26;;;;;;;55.00;45.60;;;8.60;20.90;;;;;;4995331;28;20506;-89
2023/04/19 02:19:52;;;;;;;42.72;39.15;;;8.70;72.70;;;;;;5005816;28;20116;-90
2023/04/19 02:22:18;;;;;;;40.08;36.50;;;8.70;99.90;;;;;;4993301;28;20046;-89
2023/04/19 02:24:44;;;;;;;41.55;37.90;;;8.70;99.90;;;;;;5003535;28;20502;-89
2023/04/19 02:27:10;;;;;;;46.85;42.78;;;8.70;99.90;;;;;;5000072;28;20069;-89
2023/04/19 02:29:37;;;;;;;41.97;38.40;;;8.60;99.90;;;;;;5007219;28;20473;-89
2023/04/19 02:32:04;;;;;;;39.63;36.35;;;8.70;99.90;;;;;;4989302;28;20058;-89
2023/04/19 02:34:31;;;;;;;46.42;41.78;;;8.60;1.00;;;;;;4991304;28;20053;-89
2023/04/19 02:36:56;;;;;;;39.35;36.03;;;8.50;1.00;;;;;;4974535;28;20056;-88
2023/04/19 02:39:22;;;;;;;52.90;47.15;;;8.50;1.00;;;;;;4985555;28;20049;-89
2023/04/19 02:41:48;;;;;;;46.10;42.05;;;8.50;1.00;;;;;;5000618;28;20510;-89
2023/04/19 02:44:14;;;;;;;46.53;42.20;;;8.50;15.20;;;;;;5005667;28;20046;-89
2023/04/19 02:46:39;;;;;;;51.95;47.10;;;8.40;90.00;;;;;;5001166;28;20057;-89
2023/04/19 02:49:05;;;;;;;49.78;45.30;;;7.80;99.90;;;;;;4989960;28;20529;-89
2023/04/19 02:51:30;;;;;;;53.17;48.25;;;9.60;99.90;;;;;;4978884;28;20046;-89
2023/04/19 02:53:57;;;;;;;56.25;50.97;;;8.50;99.90;;;;;;5006944;28;20050;-89
2023/04/19 02:56:23;;;;;;;45.63;41.58;;;8.40;99.90;;;;;;4983598;28;20145;-89
2023/04/19 02:58:48;;;;;;;44.80;40.75;;;8.40;99.90;;;;;;4997990;28;20053;-89
2023/04/19 03:01:14;;;;;;;40.63;36.83;;;8.50;99.90;;;;;;4990433;28;20450;-89
2023/04/19 03:03:40;;;;;;;56.08;51.20;;;8.40;99.90;;;;;;5009053;28;20130;-90
2023/04/19 03:06:05;;;;;;;35.33;31.98;;;8.40;99.90;;;;;;5007765;28;20046;-90
2023/04/19 03:08:31;;;;;;;50.10;45.25;;;8.50;99.90;;;;;;4990718;28;20048;-89
2023/04/19 03:10:57;;;;;;;52.72;47.88;;;8.50;99.90;;;;;;5012370;28;20045;-89
2023/04/19 03:13:22;;;;;;;60.22;54.60;;;8.50;99.90;;;;;;5013134;28;20046;-88
2023/04/19 03:15:48;;;;;;;40.47;36.60;;;8.40;99.90;;;;;;4992666;28;20401;-89
2023/04/19 03:18:15;;;;;;;49.90;45.70;;;8.50;99.90;;;;;;5004162;28;20434;-89
2023/04/19 03:20:41;;;;;;;45.47;41.60;;;8.40;74.10;;;;;;4989747;28;20073;-89
2023/04/19 03:23:07;;;;;;;51.55;46.53;;;8.40;1.00;;;;;;4990774;28;20081;-89
2023/04/19 03:25:33;;;;;;;40.90;37.40;;;8.40;1.00;;;;;;4989383;28;20351;-88
2023/04/19 03:27:58;;;;;;;66.03;58.90;;;8.40;1.00;;;;;;4988091;28;20608;-89
2023/04/19 03:30:24;;;;;;;48.13;43.97;;;9.50;99.90;;;;;;4978766;28;20417;-89
2023/04/19 03:32:50;;;;;;;62.97;56.97;;;8.40;99.90;;;;;;4990920;28;20038;-89
2023/04/19 03:35:16;;;;;;;53.55;48.47;;;8.30;99.90;;;;;;5008670;28;20141;-89
2023/04/19 03:37:42;;;;;;;56.10;51.05;;;8.40;1.00;;;;;;4994451;28;20161;-89
2023/04/19 03:40:08;;;;;;;66.07;60.13;;;8.30;1.00;;;;;;5001659;28;20125;-88
2023/04/19 03:42:33;;;;;;;45.97;42.10;;;8.30;99.90;;;;;;4991673;28;20096;-89
2023/04/19 03:44:59;;;;;;;55.08;50.40;;;8.30;99.90;;;;;;4992205;28;20048;-89
2023/04/19 03:47:25;;;;;;;64.38;58.38;;;8.20;99.90;;;;;;5005727;28;20437;-89
2023/04/19 03:49:50;;;;;;;62.65;57.05;;;8.20;99.90;;;;;;5008462;28;20045;-89
2023/04/19 03:52:16;;;;;;;48.28;43.60;;;8.20;63.60;;;;;;5004183;28;20125;-89
2023/04/19 03:54:41;;;;;;;49.35;45.08;;;8.20;1.00;;;;;;4991835;28;20457;-89
2023/04/19 03:57:07;;;;;;;56.92;52.33;;;8.20;1.00;;;;;;4993109;28;20049;-89
2023/04/19 03:59:34;;;;;;;57.58;52.17;;;8.10;99.90;;;;;;4995032;28;20049;-89
2023/04/19 04:02:00;;;;;;;62.00;56.60;;;8.10;99.90;;;;;;4983496;28;20038;-89
2023/04/19 04:04:25;;;;;;;55.38;50.70;;;8.10;99.90;;;;;;5008773;28;20386;-89
2023/04/19 04:06:51;;;;;;;55.75;51.47;;;8.10;99.90;;;;;;4991203;28;20473;-89
2023/04/19 04:09:16;;;;;;;57.38;52.65;;;8.10;10.60;;;;;;4992558;28;20034;-88
2023/04/19 04:11:42;;;;;;;57.15;52.85;;;8.00;1.00;;;;;;5004060;28;20046;-89
2023/04/19 04:14:08;;;;;;;64.10;59.00;;;8.00;1.00;;;;;;4991977;28;20057;-89
2023/04/19 04:16:33;;;;;;;66.07;60.53;;;8.00;99.90;;;;;;4978784;28;20072;-89
2023/04/19 04:18:59;;;;;;;59.50;54.38;;;7.90;99.90;;;;;;4992205;28;20046;-89
2023/04/19 04:21:25;;;;;;;64.18;59.25;;;7.90;99.90;;;;;;4999889;28;20401;-89
2023/04/19 04:23:52;;;;;;;68.35;62.38;;;7.90;99.90;;;;;;5004743;28;20050;-89
2023/04/19 04:26:19;;;;;;;62.58;57.60;;;7.80;99.90;;;;;;5003708;28;20469;-88
2023/04/19 04:28:44;;;;;;;56.63;52.10;;;7.80;62.00;;;;;;5002203;28;20583;-89
2023/04/19 04:31:11;;;;;;;55.88;51.25;;;7.80;17.50;;;;;;4993200;28;20042;-89
2023/04/19 04:33:37;;;;;;;58.58;53.75;;;9.50;1.00;;;;;;4988992;28;20121;-88
2023/04/19 04:36:04;;;;;;;62.05;56.97;;;7.70;1.00;;;;;;5004123;28;20046;-89
2023/04/19 04:38:30;;;;;;;64.50;59.30;;;7.70;1.00;;;;;;4996989;28;20042;-89
2023/04/19 04:40:55;;;;;;;69.70;64.18;;;7.70;1.00;;;;;;4984931;28;20044;-88
2023/04/19 04:43:27;;;;;;;59.90;55.00;;;9.60;1.00;;;;;;4987581;28;20593;-88
2023/04/19 04:45:55;;;;;;;57.50;52.67;;;7.60;1.00;;;;;;4992660;28;20042;-89
2023/04/19 04:48:21;;;;;;;70.35;65.28;;;7.60;1.00;;;;;;4979978;28;20038;-88
2023/04/19 04:50:46;;;;;;;60.15;55.38;;;7.60;1.00;;;;;;5011477;28;20444;-89
2023/04/19 04:53:12;;;;;;;59.33;54.78;;;8.80;99.90;;;;;;4989850;28;20099;-89
2023/04/19 04:55:37;;;;;;;60.33;55.53;;;7.60;99.90;;;;;;4995121;28;20450;-89
2023/04/19 04:58:04;;;;;;;57.22;52.65;;;7.50;99.90;;;;;;5008500;28;20406;-89
2023/04/19 05:00:31;;;;;;;64.32;59.00;;;7.50;99.90;;;;;;4999074;28;20534;-88
2023/04/19 05:02:57;;;;;;;53.88;49.85;;;7.50;99.90;;;;;;4975027;28;20042;-88
2023/04/19 05:05:23;;;;;;;70.30;65.00;;;7.50;99.90;;;;;;4976234;28;20054;-89
2023/04/19 05:07:48;;;;;;;66.40;60.72;;;7.50;99.90;;;;;;5009835;28;20041;-89
2023/04/19 05:10:14;;;;;;;68.95;63.13;;;7.50;99.90;;;;;;4981216;28;20038;-89
2023/04/19 05:12:40;;;;;;;54.67;50.53;;;7.50;99.90;;;;;;4992967;28;20058;-88
2023/04/19 05:15:06;;;;;;;64.97;60.13;;;7.50;99.90;;;;;;4992747;28;20046;-89
2023/04/19 05:17:32;;;;;;;64.25;59.33;;;7.40;99.90;;;;;;4975144;28;20038;-88
2023/04/19 05:19:57;;;;;;;70.65;65.22;;;7.40;99.90;;;;;;4980546;28;20041;-88
2023/04/19 05:22:23;;;;;;;78.63;72.18;;;7.40;99.90;;;;;;5004261;28;20449;-90
2023/04/19 05:24:49;;;;;;;66.93;62.05;;;8.00;99.90;;;;;;5004210;28;20042;-90
2023/04/19 05:27:15;;;;;;;62.15;57.40;;;7.40;99.90;;;;;;5011123;28;20092;-88
2023/04/19 05:29:40;;;;;;;58.67;54.45;;;7.40;99.90;;;;;;5005052;28;20513;-89
2023/04/19 05:32:06;;;;;;;62.83;58.20;;;8.10;99.90;;;;;;5004329;28;20504;-89
2023/04/19 05:34:33;;;;;;;59.47;54.90;;;7.50;99.90;;;;;;4999249;28;20037;-89
2023/04/19 05:36:59;;;;;;;62.80;57.97;;;7.60;97.80;;;;;;5006779;28;20042;-89
2023/04/19 05:39:25;;;;;;;57.33;52.63;;;7.60;81.40;;;;;;4989871;28;20069;-88
2023/04/19 05:41:50;;;;;;;70.68;65.03;;;7.60;55.20;;;;;;5001976;28;20447;-88
2023/04/19 05:44:16;;;;;;;70.53;65.07;;;7.60;27.20;;;;;;5006388;28;20034;-89
2023/04/19 05:46:41;;;;;;;70.90;66.03;;;7.70;3.20;;;;;;4983071;28;20065;-89
2023/04/19 05:49:07;;;;;;;65.47;60.88;;;7.70;1.00;;;;;;4997254;28;20217;-88
2023/04/19 05:51:33;;;;;;;64.18;59.10;;;7.80;1.00;;;;;;5001517;28;20042;-88
2023/04/19 05:53:59;;;;;;;63.17;58.60;;;8.80;1.00;;;;;;5005612;28;20069;-88
2023/04/19 05:56:25;;;;;;;63.85;59.22;;;7.80;1.00;;;;;;4988900;28;20042;-88
2023/04/19 05:58:50;;;;;;;57.92;53.65;;;7.90;1.00;;;;;;4981542;28;20112;-89
2023/04/19 06:01:16;;;;;;;57.50;53.28;;;8.00;1.00;;;;;;4997738;28;20112;-89
2023/04/19 06:03:42;;;;;;;52.70;49.03;;;8.00;1.00;;;;;;4982745;28;20134;-89
2023/04/19 06:06:07;;;;;;;66.20;61.35;;;8.10;1.00;;;;;;4997496;28;20045;-88
2023/04/19 06:08:33;;;;;;;76.78;71.47;;;8.10;1.00;;;;;;4998972;28;20038;-88
2023/04/19 06:10:59;;;;;;;58.40;54.35;;;8.20;1.00;;;;;;4980869;28;20053;-89
2023/04/19 06:13:25;;;;;;;56.33;51.63;;;8.20;99.90;;;;;;5005901;28;20143;-89
2023/04/19 06:15:50;;;;;;;56.95;52.80;;;8.30;99.90;;;;;;4997375;28;20034;-87
2023/04/19 06:18:16;;;;;;;52.70;48.63;;;8.40;99.90;;;;;;4995777;28;20037;-87
2023/04/19 06:20:41;;;;;;;58.63;54.35;;;8.50;99.90;;;;;;4974369;28;20042;-87
2023/04/19 06:23:07;;;;;;;48.30;44.80;;;8.60;99.90;;;;;;5002988;28;20037;-80
2023/04/19 06:25:33;;;;;;;64.38;59.97;;;8.70;99.90;;;;;;5001919;28;20053;-87
2023/04/19 06:27:58;;;;;;;44.22;41.15;;;8.80;99.90;;;;;;5007176;28;20124;-87
2023/04/19 06:30:24;;;;;;;42.55;39.50;;;8.90;99.90;;;;;;5007963;28;20064;-88
2023/04/19 06:32:49;;;;;;;44.75;41.20;;;9.80;99.90;;;;;;4991468;28;20447;-87
2023/04/19 06:35:15;;;;;;;77.93;72.18;;;9.10;99.90;;;;;;4989427;28;20038;-87
2023/04/19 06:37:41;;;;;;;76.63;70.88;;;9.20;99.90;;;;;;4997069;28;20054;-88
2023/04/19 06:40:07;;;;;;;54.10;50.50;;;9.30;99.90;;;;;;4983535;28;20493;-88
2023/04/19 06:42:39;;;;;;;66.88;62.53;;;9.40;91.50;;;;;;5005716;28;20056;-86
2023/04/19 06:45:05;;;;;;;73.57;68.82;;;9.50;74.70;;;;;;4988024;28;20148;-87
2023/04/19 06:47:31;;;;;;;76.45;71.43;;;9.50;49.30;;;;;;4997315;28;20132;-88
2023/04/19 06:49:57;;;;;;;79.65;74.45;;;9.60;27.60;;;;;;4989351;28;20137;-86
2023/04/19 06:52:22;;;;;;;86.32;80.75;;;10.60;14.80;;;;;;5002759;28;20050;-86
2023/04/19 06:54:48;;;;;;;91.53;85.82;;;9.70;10.20;;;;;;4986207;28;20069;-86
2023/04/19 06:57:18;;;;;;;75.75;70.82;;;11.20;8.90;;;;;;4978191;28;20034;-87
2023/04/19 06:59:43;;;;;;;66.68;62.42;;;9.80;1.00;;;;;;4999064;28;20088;-87
2023/04/19 07:02:09;;;;;;;83.25;77.55;;;9.80;1.00;;;;;;4989305;28;20550;-86
2023/04/19 07:04:35;;;;;;;83.72;78.30;;;9.80;1.00;;;;;;5001153;28;20073;-86
2023/04/19 07:07:02;;;;;;;55.35;51.55;;;9.80;1.00;;;;;;4988471;28;20057;-89
2023/04/19 07:09:27;;;;;;;97.03;90.80;;;9.90;1.00;;;;;;4987876;28;20108;-88
2023/04/19 07:11:53;;;;;;;104.45;98.18;;;9.90;1.00;;;;;;5004620;28;20053;-86
2023/04/19 07:14:19;;;;;;;115.53;108.22;;;10.00;1.00;;;;;;5006123;28;20042;-86
2023/04/19 07:16:45;;;;;;;114.60;107.35;;;10.10;1.00;;;;;;4989265;28;20042;-85
2023/04/19 07:19:12;;;;;;;78.57;73.45;;;10.10;1.00;;;;;;5000953;28;20029;-86
2023/04/19 07:21:38;;;;;;;74.50;69.25;;;10.10;1.00;;;;;;4993437;28;20054;-86
2023/04/19 07:24:05;;;;;;;73.82;68.97;;;10.20;1.00;;;;;;5003477;28;20038;-86
2023/04/19 07:26:31;;;;;;;57.90;53.97;;;10.30;1.00;;;;;;5008096;28;20041;-85
2023/04/19 07:28:57;;;;;;;57.05;53.10;;;11.70;1.00;;;;;;4979151;28;20088;-87
2023/04/19 07:31:26;;;;;;;33.70;30.95;;;10.50;1.00;;;;;;4990524;28;20050;-87
2023/04/19 07:33:52;;;;;;;50.00;46.45;;;10.90;1.00;;;;;;5007356;28;20417;-87
2023/04/19 07:36:18;;;;;;;36.90;34.35;;;11.30;1.00;;;;;;5007075;28;20038;-87
2023/04/19 07:38:44;;;;;;;13.63;11.18;;;11.50;1.00;;;;;;5005930;28;20049;-86
2023/04/19 07:41:09;;;;;;;9.77;8.80;;;11.80;1.00;;;;;;4981830;28;20034;-85
2023/04/19 07:43:36;;;;;;;7.75;7.05;;;13.00;1.00;;;;;;4997657;28;20125;-86
2023/04/19 07:46:07;;;;;;;9.57;8.38;;;12.20;1.00;;;;;;4984035;28;20084;-85
2023/04/19 07:48:33;;;;;;;5.80;5.22;;;13.40;1.00;;;;;;5007239;28;20042;-85
2023/04/19 07:51:10;;;;;;;10.60;9.65;;;12.40;1.00;;;;;;5006786;28;20072;-85
2023/04/19 07:53:38;;;;;;;8.68;7.82;;;12.60;1.00;;;;;;4972991;28;20454;-85
2023/04/19 07:56:05;;;;;;;6.53;5.93;;;12.60;1.00;;;;;;5004605;28;20030;-85
2023/04/19 07:58:30;;;;;;;9.60;8.70;;;12.80;1.00;;;;;;4995395;28;20052;-85
2023/04/19 08:00:56;;;;;;;5.78;5.15;;;12.90;1.00;;;;;;4999817;28;20042;-85
2023/04/19 08:03:22;;;;;;;8.48;7.68;;;12.80;1.00;;;;;;5003247;28;20097;-85
2023/04/19 08:05:47;;;;;;;9.70;8.68;;;12.70;1.00;;;;;;4989382;28;20050;-86
2023/04/19 08:08:13;;;;;;;10.35;4.28;;;12.90;1.00;;;;;;4993222;28;20038;-86
2023/04/19 08:10:38;;;;;;;7.57;6.88;;;13.20;1.00;;;;;;5004614;28;20117;-85
2023/04/19 08:13:04;;;;;;;12.02;10.90;;;13.40;1.00;;;;;;5008198;28;20040;-84
2023/04/19 08:15:30;;;;;;;8.50;7.80;;;13.40;99.90;;;;;;5003888;28;20512;-86
2023/04/19 08:17:55;;;;;;;8.38;7.57;;;13.30;99.90;;;;;;5005040;28;20050;-85
2023/04/19 08:20:22;;;;;;;4.63;4.22;;;13.30;99.90;;;;;;5005400;28;20113;-85
2023/04/19 08:22:47;;;;;;;6.30;4.07;;;13.50;99.90;;;;;;5006588;28;20034;-85
2023/04/19 08:25:13;;;;;;;10.88;5.20;;;13.50;99.90;;;;;;4977254;28;20038;-85
2023/04/19 08:27:38;;;;;;;8.70;7.88;;;13.60;99.90;;;;;;4994152;28;20054;-85
2023/04/19 08:30:06;;;;;;;10.32;8.77;;;13.50;99.90;;;;;;4985144;28;20046;-85
2023/04/19 08:32:32;;;;;;;8.10;7.30;;;13.40;99.90;;;;;;5008700;28;20042;-85
2023/04/19 08:34:59;;;;;;;5.63;4.13;;;13.70;99.90;;;;;;4994839;28;20041;-85
2023/04/19 08:37:25;;;;;;;6.43;4.68;;;14.00;99.90;;;;;;5008963;28;20057;-85
2023/04/19 08:39:51;;;;;;;5.80;5.28;;;14.20;99.90;;;;;;5005555;28;20116;-86
2023/04/19 08:42:18;;;;;;;4.78;4.32;;;14.30;99.90;;;;;;5006455;28;20034;-85
2023/04/19 08:44:45;;;;;;;8.77;8.07;;;15.70;99.90;;;;;;4997502;28;20065;-85
2023/04/19 08:47:11;;;;;;;4.85;4.43;;;14.50;99.90;;;;;;5006477;28;20087;-85
2023/04/19 08:49:38;;;;;;;6.18;4.72;;;14.30;99.90;;;;;;5010114;28;20037;-86
2023/04/19 08:52:07;;;;;;;7.70;7.00;;;14.20;99.90;;;;;;5006228;28;20042;-86
2023/04/19 08:54:34;;;;;;;5.45;4.15;;;14.30;99.90;;;;;;5011149;28;20038;-86
2023/04/19 08:57:02;;;;;;;6.55;4.45;;;14.50;99.90;;;;;;4990802;28;20464;-86
2023/04/19 08:59:29;;;;;;;6.20;5.60;;;14.60;99.90;;;;;;4982403;28;20034;-86
2023/04/19 09:02:01;;;;;;;6.18;4.53;;;14.70;99.90;;;;;;5002409;28;20045;-83
2023/04/19 09:04:26;;;;;;;5.88;5.28;;;14.80;99.90;;;;;;5010771;28;20045;-84
2023/04/19 09:06:53;;;;;;;7.40;6.70;;;14.60;99.90;;;;;;5002432;28;20466;-86
2023/04/19 09:09:21;;;;;;;7.85;7.10;;;14.60;99.90;;;;;;4976318;28;20486;-85
2023/04/19 09:11:47;;;;;;;8.70;7.15;;;14.40;99.90;;;;;;4990259;28;20041;-86
2023/04/19 09:14:15;;;;;;;8.98;5.38;;;15.40;99.90;;;;;;4990260;28;20048;-86
2023/04/19 09:16:41;;;;;;;10.40;8.95;;;15.40;99.90;;;;;;4997694;28;20038;-86
2023/04/19 09:19:11;;;;;;;11.18;8.80;;;14.30;99.90;;;;;;4975912;28;20068;-84
2023/04/19 09:21:37;;;;;;;6.28;4.15;;;14.20;99.90;;;;;;5009210;28;20069;-85
2023/04/19 09:24:04;;;;;;;6.65;4.75;;;14.10;99.90;;;;;;4994005;28;20152;-86
2023/04/19 09:26:30;;;;;;;11.60;10.55;;;14.50;99.90;;;;;;5001609;28;20506;-85
2023/04/19 09:29:03;;;;;;;5.53;5.03;;;14.50;99.90;;;;;;4974032;28;20049;-86
2023/04/19 09:31:31;;;;;;;7.78;6.55;;;14.60;99.90;;;;;;4992502;28;20041;-84
2023/04/19 09:33:57;;;;;;;8.38;4.40;;;14.90;99.90;;;;;;5002969;28;20034;-86
2023/04/19 09:36:30;;;;;;;6.82;6.07;;;14.80;99.90;;;;;;5005407;28;20069;-86
2023/04/19 09:38:56;;;;;;;4.70;4.25;;;14.80;99.90;;;;;;4991754;28;20050;-87
2023/04/19 09:41:23;;;;;;;8.35;7.60;;;14.70;99.90;;;;;;5004821;28;20100;-87
2023/04/19 09:43:49;;;;;;;16.02;14.57;;;14.70;99.90;;;;;;5006922;28;20038;-86
2023/04/19 09:46:33;;;;;;;9.93;8.98;;;14.50;99.90;;;;;;4988391;28;20099;-85
2023/04/19 09:49:19;;;;;;;7.75;7.05;;;14.20;99.90;;;;;;5004530;28;20057;-85
2023/04/19 09:51:50;;;;;;;7.15;6.60;;;14.20;99.90;;;;;;5001961;28;20048;-85
2023/04/19 09:54:18;;;;;;;7.10;6.45;;;14.10;99.90;;;;;;5008577;28;20060;-85
2023/04/19 09:56:44;;;;;;;7.72;6.40;;;14.10;99.90;;;;;;4992989;28;20050;-85
2023/04/19 09:59:11;;;;;;;8.63;7.80;;;14.00;99.90;;;;;;4994236;28;20030;-86
2023/04/19 10:01:45;;;;;;;10.35;8.65;;;14.10;99.90;;;;;;4980143;28;20049;-86
2023/04/19 10:04:12;;;;;;;5.05;4.63;;;14.20;99.90;;;;;;4991221;28;20046;-85
2023/04/19 10:06:39;;;;;;;5.43;4.25;;;14.10;99.90;;;;;;5004731;28;20057;-86
2023/04/19 10:09:05;;;;;;;7.45;6.32;;;14.30;99.90;;;;;;4990963;28;20333;-88
2023/04/19 10:11:40;;;;;;;7.88;7.05;;;14.30;99.90;;;;;;4999139;28;20116;-86
2023/04/19 10:14:07;;;;;;;7.43;6.75;;;14.80;99.90;;;;;;4996372;28;20051;-86
2023/04/19 10:16:35;;;;;;;10.07;8.00;;;14.40;99.90;;;;;;4998738;28;20041;-86
2023/04/19 10:19:03;;;;;;;13.80;12.50;;;14.40;99.90;;;;;;4993206;28;20038;-85
2023/04/19 10:21:30;;;;;;;7.78;6.97;;;14.40;99.90;;;;;;5009679;28;20046;-87
2023/04/19 10:23:57;;;;;;;11.60;10.57;;;14.30;99.90;;;;;;5007381;28;20449;-86
2023/04/19 10:26:23;;;;;;;13.77;12.60;;;14.20;99.90;;;;;;5004397;28;20053;-85
2023/04/19 10:28:49;;;;;;;8.60;6.97;;;14.00;99.90;;;;;;5002947;28;20057;-85
2023/04/19 10:31:20;;;;;;;12.93;11.63;;;13.90;99.90;;;;;;5006672;28;20084;-85
2023/04/19 10:33:46;;;;;;;14.32;13.10;;;15.20;99.90;;;;;;5002271;28;20034;-85
2023/04/19 10:36:16;;;;;;;14.95;13.60;;;14.10;99.90;;;;;;5007811;28;20042;-85
2023/04/19 10:38:51;;;;;;;18.67;17.15;;;13.90;99.90;;;;;;4993995;28;20395;-86
2023/04/19 10:41:20;;;;;;;16.75;15.05;;;13.90;99.90;;;;;;4989960;28;20487;-85
2023/04/19 10:43:56;;;;;;;17.08;15.57;;;13.90;99.90;;;;;;4995364;28;20135;-85
2023/04/19 10:46:23;;;;;;;15.20;13.68;;;13.90;99.90;;;;;;5003972;28;20109;-85
2023/04/19 10:49:02;;;;;;;10.93;9.98;;;13.80;99.90;;;;;;5005793;28;20084;-85
2023/04/19 10:51:35;;;;;;;10.52;9.55;;;13.80;99.90;;;;;;4997735;28;20053;-85
2023/04/19 10:54:30;;;;;;;17.02;15.63;;;13.90;99.90;;;;;;4999242;28;20038;-86
2023/04/19 10:56:58;;;;;;;12.65;10.10;;;13.90;99.90;;;;;;4977963;28;20041;-85
2023/04/19 10:59:25;;;;;;;13.63;10.15;;;13.80;99.90;;;;;;5003939;28;20053;-85
2023/04/19 11:01:52;;;;;;;16.45;15.05;;;13.80;99.90;;;;;;4999410;28;20038;-86
2023/04/19 11:04:31;;;;;;;21.30;19.65;;;13.80;99.90;;;;;;4984971;28;20527;-86
2023/04/19 11:06:57;;;;;;;7.57;6.55;;;13.80;99.90;;;;;;5003578;28;20046;-86
2023/04/19 11:09:24;;;;;;;14.73;13.25;;;14.10;99.90;;;;;;4990476;28;20050;-85
2023/04/19 11:11:56;;;;;;;14.50;11.70;;;14.10;99.90;;;;;;4993438;28;20561;-85
2023/04/19 11:14:22;;;;;;;17.00;15.50;;;14.00;99.90;;;;;;4994231;28;20049;-85
2023/04/19 11:16:48;;;;;;;10.85;8.82;;;13.90;99.90;;;;;;5004300;28;20037;-84
2023/04/19 11:19:19;;;;;;;16.02;14.65;;;13.90;99.90;;;;;;4994168;28;20042;-85
2023/04/19 11:21:47;;;;;;;25.00;22.67;;;14.00;99.90;;;;;;5008015;28;20050;-86
2023/04/19 11:24:14;;;;;;;13.50;12.40;;;13.90;99.90;;;;;;4987183;28;20260;-86
2023/04/19 11:26:42;;;;;;;34.55;31.48;;;14.00;99.90;;;;;;4996908;28;20068;-87
2023/04/19 11:29:09;;;;;;;16.02;14.65;;;14.00;99.90;;;;;;4975467;28;20050;-86
2023/04/19 11:31:35;;;;;;;14.55;13.05;;;14.00;99.90;;;;;;5000548;28;20247;-86
2023/04/19 11:34:02;;;;;;;14.77;13.48;;;13.90;99.90;;;;;;5000451;28;20125;-86
2023/04/19 11:36:28;;;;;;;13.40;12.30;;;14.00;99.90;;;;;;4985899;28;20064;-86
2023/04/19 11:38:54;;;;;;;14.38;13.20;;;13.90;99.90;;;;;;4986806;28;20062;-86
2023/04/19 11:41:19;;;;;;;12.35;10.38;;;14.40;99.90;;;;;;4999635;28;20124;-86
2023/04/19 11:43:45;;;;;;;15.02;13.77;;;14.20;99.90;;;;;;4989266;28;20187;-86
2023/04/19 11:46:12;;;;;;;13.85;12.55;;;14.00;99.90;;;;;;5003193;28;20049;-86
2023/04/19 11:48:58;;;;;;;16.83;15.25;;;13.90;99.90;;;;;;4993222;28;20046;-86
2023/04/19 11:51:25;;;;;;;14.68;13.60;;;13.80;99.90;;;;;;4995807;28;20046;-87
2023/04/19 11:53:51;;;;;;;19.20;17.33;;;13.80;99.90;;;;;;4998262;28;20103;-87
2023/04/19 11:56:16;;;;;;;11.40;10.43;;;13.90;99.90;;;;;;4982188;28;20046;-87
2023/04/19 11:58:44;;;;;;;19.50;17.77;;;13.90;99.90;;;;;;4988828;28;20092;-87
2023/04/19 12:01:19;;;;;;;16.83;15.38;;;14.00;99.90;;;;;;4993338;28;20045;-87
2023/04/19 12:03:48;;;;;;;25.80;23.47;;;15.30;99.90;;;;;;4988827;28;20033;-85
2023/04/19 12:06:22;;;;;;;19.25;17.52;;;14.00;99.90;;;;;;4998091;28;20297;-86
2023/04/19 12:08:50;;;;;;;17.17;11.23;;;13.90;99.90;;;;;;4993845;28;20121;-86
2023/04/19 12:11:20;;;;;;;12.45;11.27;;;13.90;99.90;;;;;;4979593;28;20044;-86
2023/04/19 12:13:47;;;;;;;16.33;14.93;;;13.90;99.90;;;;;;4996776;28;20053;-86
2023/04/19 12:16:12;;;;;;;23.00;20.65;;;13.90;99.90;;;;;;4979442;28;20041;-86
2023/04/19 12:18:49;;;;;;;16.15;14.60;;;13.80;99.90;;;;;;4987632;28;20409;-85
2023/04/19 12:21:29;;;;;;;15.52;13.93;;;14.30;99.90;;;;;;5002412;28;20060;-87
2023/04/19 12:24:00;;;;;;;12.65;11.48;;;13.90;99.90;;;;;;4972924;28;20042;-86
2023/04/19 12:26:27;;;;;;;19.08;17.35;;;13.90;99.90;;;;;;4994027;28;20038;-86
2023/04/19 12:28:54;;;;;;;24.90;22.73;;;13.80;99.90;;;;;;4988879;28;20045;-86
2023/04/19 12:31:20;;;;;;;21.77;19.52;;;13.80;99.90;;;;;;5000495;28;20509;-87
2023/04/19 12:33:46;;;;;;;17.60;15.85;;;13.70;99.90;;;;;;5006918;28;20046;-86
2023/04/19 12:36:12;;;;;;;18.17;16.63;;;14.80;99.90;;;;;;4997469;28;20049;-84